createdAt,value
2019-05-30T00:06:13.544Z,98310.10
2019-05-30T00:16:14.610Z,98315.16
2019-05-30T00:26:17.576Z,98320.97
2019-05-30T00:36:19.023Z,98317.65
2019-05-30T00:46:20.098Z,98318.61
2019-05-30T00:56:21.152Z,98324.92
2019-05-30T01:06:22.193Z,98325.56
2019-05-30T01:16:23.210Z,98328.99
2019-05-30T01:26:24.232Z,98334.13
2019-05-30T01:36:27.371Z,98322.94
2019-05-30T01:46:28.563Z,98320.41
2019-05-30T01:56:30.005Z,98322.33
2019-05-30T02:06:31.019Z,98325.38
2019-05-30T02:16:32.041Z,98328.77
2019-05-30T02:26:33.066Z,98337.05
2019-05-30T02:36:34.077Z,98340.52
2019-05-30T02:46:35.196Z,98345.45
2019-05-30T02:56:36.257Z,98349.28
2019-05-30T03:06:37.599Z,98353.83
2019-05-30T03:16:38.803Z,98359.59
2019-05-30T03:26:39.907Z,98365.55
2019-05-30T03:36:41.165Z,98369.73
2019-05-30T03:46:47.078Z,98375.00
2019-05-30T03:57:01.083Z,98384.36
2019-05-30T04:07:15.997Z,98391.00
2019-05-30T04:17:38.383Z,98394.06
2019-05-30T04:27:39.417Z,98406.84
2019-05-30T04:37:40.465Z,98421.74
2019-05-30T04:47:41.475Z,98431.17
2019-05-30T04:57:42.525Z,98436.81
2019-05-30T05:07:43.568Z,98445.89
2019-05-30T05:17:44.710Z,98446.60
2019-05-30T05:27:45.743Z,98443.75
2019-05-30T05:37:46.788Z,98443.64
2019-05-30T05:47:47.800Z,98440.63
2019-05-30T05:57:48.880Z,98440.41
2019-05-30T06:07:50.014Z,98417.77
2019-05-30T06:17:51.020Z,98417.41
2019-05-30T06:27:52.288Z,98408.54
2019-05-30T06:37:53.360Z,98408.54
2019-05-30T06:47:54.375Z,98407.66
2019-05-30T06:57:55.523Z,98409.82
2019-05-30T07:07:56.581Z,98405.97
2019-05-30T07:17:57.818Z,98396.78
2019-05-30T07:27:58.858Z,98400.83
2019-05-30T07:37:59.937Z,98400.61
2019-05-30T07:48:01.075Z,98395.06
2019-05-30T07:58:02.377Z,98379.86
2019-05-30T08:08:03.622Z,98379.98
2019-05-30T08:18:04.642Z,98386.67
2019-05-30T08:28:05.935Z,98393.08
2019-05-30T08:38:07.596Z,98380.50
2019-05-30T08:48:08.889Z,98369.39
2019-05-30T08:58:10.084Z,98359.34
2019-05-30T09:08:11.237Z,98358.46
2019-05-30T09:18:12.268Z,98359.55
2019-05-30T09:28:13.506Z,98348.79
2019-05-30T09:38:14.766Z,98338.36
2019-05-30T09:48:16.274Z,98334.90
2019-05-30T09:58:18.434Z,98348.80
2019-05-30T10:08:19.468Z,98332.06
2019-05-30T10:18:20.713Z,98329.47
2019-05-30T10:28:23.019Z,98316.90
2019-05-30T10:38:26.106Z,98316.51
2019-05-30T10:48:27.217Z,98309.87
2019-05-30T10:58:28.296Z,98299.78
2019-05-30T11:08:30.735Z,98300.52
2019-05-30T11:18:31.739Z,98301.47
2019-05-30T11:28:32.799Z,98302.34
2019-05-30T11:38:33.944Z,98284.94
2019-05-30T11:48:37.490Z,98289.81
2019-05-30T11:58:38.663Z,98271.36
2019-05-30T12:08:39.788Z,98271.64
2019-05-30T12:18:40.881Z,98264.30
2019-05-30T12:28:42.151Z,98270.11
2019-05-30T12:38:43.185Z,98270.03
2019-05-30T12:48:44.335Z,98261.63
2019-05-30T12:58:45.524Z,98256.79
2019-05-30T13:08:46.623Z,98252.55
2019-05-30T13:18:47.892Z,98250.95
2019-05-30T13:28:49.017Z,98256.20
2019-05-30T13:38:50.124Z,98248.33
2019-05-30T13:48:51.272Z,98248.55
2019-05-30T13:58:52.328Z,98240.78
2019-05-30T14:08:54.622Z,98227.08
2019-05-30T14:18:55.654Z,98224.45
2019-05-30T14:28:56.719Z,98223.89
2019-05-30T14:38:59.082Z,98218.85
2019-05-30T14:49:00.416Z,98230.89
2019-05-30T14:59:01.493Z,98238.62
2019-05-30T15:09:16.368Z,98236.70
2019-05-30T15:19:08.465Z,98222.45
2019-05-30T15:29:10.059Z,98221.38
2019-05-30T15:39:11.360Z,98218.20
2019-05-30T15:49:12.815Z,98218.48
2019-05-30T15:59:14.100Z,98221.56
2019-05-30T16:09:15.248Z,98214.77
2019-05-30T16:19:22.004Z,98206.78
2019-05-30T16:29:19.831Z,98212.64
2019-05-30T16:39:22.497Z,98212.16
2019-05-30T16:49:23.723Z,98209.93
2019-05-30T16:59:24.879Z,98207.27
2019-05-30T17:09:27.977Z,98203.58
2019-05-30T17:19:28.962Z,98210.77
2019-05-30T17:29:30.125Z,98214.95
2019-05-30T17:39:31.139Z,98236.45
2019-05-30T17:49:32.246Z,98242.59
2019-05-30T17:59:33.305Z,98250.36
2019-05-30T18:09:34.449Z,98248.55
2019-05-30T18:19:35.470Z,98252.09
2019-05-30T18:29:36.541Z,98249.14
2019-05-30T18:39:37.642Z,98264.30
2019-05-30T18:49:38.840Z,98271.32
2019-05-30T18:59:39.991Z,98264.65
2019-05-30T19:09:41.331Z,98272.83
2019-05-30T19:19:43.370Z,98288.99
2019-05-30T19:29:45.398Z,98296.58
2019-05-30T19:39:46.446Z,98320.83
2019-05-30T19:49:47.453Z,98326.95
2019-05-30T19:59:48.597Z,98333.25
2019-05-30T20:10:00.830Z,98340.50
2019-05-30T20:19:54.869Z,98343.01
2019-05-30T20:29:56.021Z,98354.83
2019-05-30T20:39:57.042Z,98361.95
2019-05-30T20:49:58.051Z,98372.72
2019-05-30T20:59:59.075Z,98378.88
2019-05-30T21:10:04.149Z,98390.33
2019-05-30T21:20:10.808Z,98395.61
2019-05-30T21:30:09.893Z,98388.34
2019-05-30T21:40:11.528Z,98391.50
2019-05-30T21:50:13.036Z,98390.08
2019-05-30T22:00:19.372Z,98395.64
2019-05-30T22:10:22.386Z,98394.08
2019-05-30T22:20:23.514Z,98405.57
2019-05-30T22:30:24.626Z,98390.04
2019-05-30T22:40:25.752Z,98387.91
2019-05-30T22:50:26.867Z,98395.38
2019-05-30T23:00:28.874Z,98395.98
2019-05-30T23:10:30.055Z,98387.47
2019-05-30T23:20:32.222Z,98386.55
2019-05-30T23:30:33.331Z,98388.95
2019-05-30T23:40:35.185Z,98388.62
2019-05-30T23:50:36.327Z,98383.56
